createdAt,value
2023-12-04T00:01:23.132Z,82.88
2023-12-04T00:06:26.333Z,82.78
2023-12-04T00:11:29.672Z,82.65
2023-12-04T00:16:34.585Z,84.25
2023-12-04T00:21:38.087Z,82.30
2023-12-04T00:26:39.774Z,83.38
2023-12-04T00:31:41.378Z,86.21
2023-12-04T00:36:44.379Z,81.32
2023-12-04T00:41:46.048Z,84.21
2023-12-04T00:46:47.711Z,85.65
2023-12-04T00:51:50.851Z,80.75
2023-12-04T00:56:52.397Z,82.21
2023-12-04T01:01:54.063Z,80.90
2023-12-04T01:06:57.065Z,80.12
2023-12-04T01:11:58.711Z,80.79
2023-12-04T01:17:00.299Z,81.13
2023-12-04T01:22:03.411Z,85.49
2023-12-04T01:27:05.559Z,82.24
2023-12-04T01:32:07.449Z,81.20
2023-12-04T01:37:10.337Z,81.06
2023-12-04T01:42:11.999Z,82.55
2023-12-04T01:47:13.943Z,81.81
2023-12-04T01:52:17.338Z,81.44
2023-12-04T01:57:19.708Z,81.46
2023-12-04T02:02:21.536Z,80.01
2023-12-04T02:07:24.644Z,79.24
2023-12-04T02:12:26.437Z,78.87
2023-12-04T02:17:29.894Z,77.79
2023-12-04T02:22:32.831Z,79.61
2023-12-04T02:27:45.208Z,80.99
2023-12-04T02:32:48.154Z,81.35
2023-12-04T02:37:50.612Z,81.68
2023-12-04T02:42:53.642Z,80.98
2023-12-04T02:47:55.365Z,81.93
2023-12-04T02:52:56.951Z,81.84
2023-12-04T02:57:59.912Z,82.40
2023-12-04T03:03:01.526Z,82.62
2023-12-04T03:08:03.688Z,84.06
2023-12-04T03:13:06.665Z,83.90
2023-12-04T03:18:10.793Z,83.93
2023-12-04T03:23:13.944Z,82.37
2023-12-04T03:28:16.992Z,83.31
2023-12-04T03:33:18.761Z,82.80
2023-12-04T03:38:20.445Z,83.51
2023-12-04T03:43:23.469Z,82.43
2023-12-04T03:48:25.176Z,80.85
2023-12-04T03:53:27.225Z,79.94
2023-12-04T03:58:30.412Z,81.63
2023-12-04T04:03:32.393Z,81.51
2023-12-04T04:08:34.328Z,82.47
2023-12-04T04:13:37.279Z,83.12
2023-12-04T04:18:38.912Z,82.40
2023-12-04T04:23:40.640Z,83.55
2023-12-04T04:28:43.601Z,83.09
2023-12-04T04:33:45.397Z,82.64
2023-12-04T04:38:47.082Z,82.45
2023-12-04T04:43:50.110Z,83.17
2023-12-04T04:48:51.776Z,83.48
2023-12-04T04:53:53.337Z,83.22
2023-12-04T04:58:56.259Z,82.33
2023-12-04T05:03:57.938Z,82.52
2023-12-04T05:08:59.548Z,83.09
2023-12-04T05:14:02.483Z,83.88
2023-12-04T05:19:04.233Z,81.05
2023-12-04T05:24:06.313Z,81.28
2023-12-04T05:29:09.448Z,80.23
2023-12-04T05:34:11.147Z,79.57
2023-12-04T05:39:13.012Z,79.88
2023-12-04T05:44:16.010Z,79.86
2023-12-04T05:49:17.666Z,79.90
2023-12-04T05:54:19.351Z,78.30
2023-12-04T05:59:22.339Z,77.21
2023-12-04T06:04:23.878Z,78.61
2023-12-04T06:09:25.485Z,78.15
2023-12-04T06:14:28.344Z,82.36
2023-12-04T06:19:30.038Z,80.81
2023-12-04T06:24:32.236Z,80.58
2023-12-04T06:29:35.901Z,80.07
2023-12-04T06:34:38.360Z,80.33
2023-12-04T06:39:41.648Z,81.57
2023-12-04T06:44:45.429Z,79.15
2023-12-04T06:49:47.160Z,78.40
2023-12-04T06:54:48.797Z,78.57
2023-12-04T06:59:51.765Z,78.05
2023-12-04T07:04:53.356Z,79.75
2023-12-04T07:09:55.009Z,79.70
2023-12-04T07:14:59.077Z,79.17
2023-12-04T07:20:00.807Z,78.66
2023-12-04T07:25:02.649Z,77.53
2023-12-04T07:30:06.710Z,79.91
2023-12-04T07:35:08.694Z,80.19
2023-12-04T07:40:10.996Z,78.39
2023-12-04T07:45:14.071Z,79.36
2023-12-04T07:50:15.931Z,79.66
2023-12-04T07:55:17.644Z,77.98
2023-12-04T08:00:21.562Z,78.50
2023-12-04T08:05:23.142Z,77.57
2023-12-04T08:10:24.848Z,77.21
2023-12-04T08:15:27.815Z,77.04
2023-12-04T08:20:36.595Z,79.22
2023-12-04T08:25:41.845Z,78.29
2023-12-04T08:30:44.842Z,77.96
2023-12-04T08:35:48.805Z,78.12
2023-12-04T08:40:50.416Z,78.28
2023-12-04T08:45:53.316Z,78.21
2023-12-04T08:50:54.972Z,77.59
2023-12-04T08:55:56.572Z,77.96
2023-12-04T09:00:59.647Z,77.79
2023-12-04T09:06:01.461Z,78.53
2023-12-04T09:11:14.065Z,79.28
2023-12-04T09:16:24.731Z,78.00
2023-12-04T09:21:26.362Z,76.77
2023-12-04T09:26:28.056Z,77.42
2023-12-04T09:31:31.324Z,78.52
2023-12-04T09:36:34.130Z,78.08
2023-12-04T09:41:38.155Z,78.22
2023-12-04T09:46:41.711Z,77.54
2023-12-04T09:51:43.377Z,76.99
2023-12-04T09:56:45.164Z,76.35
2023-12-04T10:01:48.330Z,77.31
2023-12-04T10:06:51.607Z,77.13
2023-12-04T10:11:53.304Z,75.31
2023-12-04T10:16:56.323Z,76.71
2023-12-04T10:21:59.085Z,73.75
2023-12-04T10:27:01.437Z,76.23
2023-12-04T10:32:04.813Z,76.38
2023-12-04T10:37:06.548Z,77.07
2023-12-04T10:42:08.212Z,78.20
2023-12-04T10:47:11.206Z,75.74
2023-12-04T10:52:13.450Z,76.68
2023-12-04T10:57:22.081Z,76.52
2023-12-04T11:02:27.839Z,77.11
2023-12-04T11:07:31.825Z,78.71
2023-12-04T11:13:01.089Z,77.28
2023-12-04T11:18:05.402Z,76.74
2023-12-04T11:23:07.945Z,76.75
2023-12-04T11:28:10.965Z,74.75
2023-12-04T11:33:14.121Z,76.06
2023-12-04T11:38:15.819Z,76.03
2023-12-04T11:43:25.795Z,78.11
2023-12-04T11:48:29.592Z,76.86
2023-12-04T11:53:31.202Z,78.02
2023-12-04T11:58:32.853Z,78.75
2023-12-04T12:03:36.094Z,78.90
2023-12-04T12:08:38.448Z,78.93
2023-12-04T12:13:41.962Z,79.78
2023-12-04T12:18:45.044Z,80.12
2023-12-04T12:23:47.262Z,80.29
2023-12-04T12:28:48.955Z,80.10
2023-12-04T12:33:52.229Z,79.37
2023-12-04T12:38:54.766Z,79.92
2023-12-04T12:43:56.465Z,78.70
2023-12-04T12:49:00.187Z,76.92
2023-12-04T12:54:01.930Z,76.81
2023-12-04T12:59:03.614Z,77.45
2023-12-04T13:04:06.758Z,75.79
2023-12-04T13:09:08.502Z,75.57
2023-12-04T13:14:10.143Z,74.75
2023-12-04T13:19:13.391Z,75.24
2023-12-04T13:24:15.004Z,78.09
2023-12-04T13:29:16.718Z,78.88
2023-12-04T13:34:19.735Z,79.21
2023-12-04T13:39:21.345Z,78.49
2023-12-04T13:44:22.909Z,79.25
2023-12-04T13:49:25.819Z,80.09
2023-12-04T13:54:27.364Z,80.66
2023-12-04T13:59:29.020Z,80.88
2023-12-04T14:04:32.266Z,80.35
2023-12-04T14:09:34.021Z,80.44
2023-12-04T14:14:35.633Z,80.62
2023-12-04T14:19:38.558Z,81.20
2023-12-04T14:24:40.169Z,81.44
2023-12-04T14:29:41.766Z,81.79
2023-12-04T14:34:44.708Z,81.48
2023-12-04T14:39:46.292Z,81.45
2023-12-04T14:44:48.644Z,83.06
2023-12-04T14:49:52.471Z,81.85
2023-12-04T14:54:54.129Z,82.01
2023-12-04T14:59:55.671Z,82.47
2023-12-04T15:05:00.778Z,82.49
2023-12-04T15:10:02.662Z,82.63
2023-12-04T15:15:04.865Z,82.64
2023-12-04T15:20:08.706Z,81.81
2023-12-04T15:25:10.329Z,82.35
2023-12-04T15:30:12.035Z,81.81
2023-12-04T15:35:15.108Z,82.06
2023-12-04T15:40:16.714Z,82.89
2023-12-04T15:45:18.617Z,82.75
2023-12-04T15:50:21.544Z,82.04
2023-12-04T15:55:23.201Z,82.33
2023-12-04T16:00:25.958Z,82.63
2023-12-04T16:05:29.099Z,82.07
2023-12-04T16:10:30.710Z,83.23
2023-12-04T16:15:32.322Z,83.44
2023-12-04T16:20:35.577Z,83.12
2023-12-04T16:25:37.267Z,83.52
2023-12-04T16:30:38.946Z,83.38
2023-12-04T16:35:41.995Z,83.62
2023-12-04T16:40:43.784Z,84.15
2023-12-04T16:45:45.358Z,83.50
2023-12-04T16:50:48.271Z,83.08
2023-12-04T16:55:49.835Z,84.02
2023-12-04T17:00:51.541Z,84.21
2023-12-04T17:05:54.561Z,84.20
2023-12-04T17:10:56.237Z,83.02
2023-12-04T17:15:58.389Z,83.65
2023-12-04T17:21:01.267Z,83.49
2023-12-04T17:26:02.956Z,83.46
2023-12-04T17:31:05.155Z,83.88
2023-12-04T17:36:08.873Z,83.74
2023-12-04T17:41:11.324Z,84.18
2023-12-04T17:46:12.930Z,83.23
2023-12-04T17:51:18.852Z,83.70
2023-12-04T17:56:20.553Z,83.54
2023-12-04T18:01:22.156Z,83.99
2023-12-04T18:06:28.794Z,83.67
2023-12-04T18:11:30.437Z,83.47
2023-12-04T18:16:32.014Z,83.56
2023-12-04T18:21:35.074Z,83.58
2023-12-04T18:26:37.227Z,83.51
2023-12-04T18:31:39.443Z,82.23
2023-12-04T18:36:43.783Z,83.30
2023-12-04T18:41:45.786Z,83.06
2023-12-04T18:46:52.536Z,84.24
2023-12-04T18:51:56.044Z,82.93
2023-12-04T18:56:57.744Z,84.48
2023-12-04T19:01:59.321Z,84.44
2023-12-04T19:07:02.293Z,84.64
2023-12-04T19:12:04.752Z,84.01
2023-12-04T19:17:06.496Z,83.19
2023-12-04T19:22:09.464Z,82.09
2023-12-04T19:27:11.162Z,82.49
2023-12-04T19:32:13.603Z,82.41
2023-12-04T19:37:17.839Z,83.17
2023-12-04T19:42:19.584Z,83.20
2023-12-04T19:47:21.208Z,83.03
2023-12-04T19:52:24.107Z,83.49
2023-12-04T19:57:25.781Z,84.38
2023-12-04T20:02:27.588Z,84.05
2023-12-04T20:07:30.655Z,83.51
2023-12-04T20:12:32.322Z,83.62
2023-12-04T20:17:33.882Z,85.72
2023-12-04T20:22:37.196Z,84.93
2023-12-04T20:27:38.885Z,84.21
2023-12-04T20:32:40.537Z,84.79
2023-12-04T20:37:43.461Z,84.32
2023-12-04T20:42:45.259Z,84.01
2023-12-04T20:47:46.932Z,84.48
2023-12-04T20:52:49.959Z,84.16
2023-12-04T20:57:51.644Z,84.38
2023-12-04T21:02:53.233Z,84.11
2023-12-04T21:07:56.166Z,83.66
2023-12-04T21:12:57.848Z,84.38
2023-12-04T21:17:59.560Z,84.31
2023-12-04T21:23:02.599Z,84.30
2023-12-04T21:28:04.652Z,84.14
2023-12-04T21:33:06.644Z,84.04
2023-12-04T21:38:09.798Z,84.21
2023-12-04T21:43:11.445Z,83.17
2023-12-04T21:48:13.280Z,83.27
2023-12-04T21:53:16.259Z,83.17
2023-12-04T21:58:19.263Z,82.87
2023-12-04T22:03:21.025Z,82.80
2023-12-04T22:08:24.012Z,82.71
2023-12-04T22:13:25.702Z,83.44
2023-12-04T22:18:27.466Z,84.64
2023-12-04T22:23:30.470Z,86.00
2023-12-04T22:28:32.132Z,87.34
2023-12-04T22:33:33.754Z,86.76
2023-12-04T22:38:37.097Z,87.18
2023-12-04T22:43:39.377Z,87.51
2023-12-04T22:48:41.109Z,87.63
2023-12-04T22:53:44.143Z,87.48
2023-12-04T22:58:45.745Z,86.44
2023-12-04T23:03:47.592Z,87.06
2023-12-04T23:08:50.624Z,87.30
2023-12-04T23:13:52.155Z,87.50
2023-12-04T23:18:53.894Z,87.34
2023-12-04T23:23:56.884Z,87.44
2023-12-04T23:28:59.025Z,87.95
2023-12-04T23:34:00.823Z,87.54
2023-12-04T23:39:03.772Z,87.12
2023-12-04T23:44:05.525Z,87.44
2023-12-04T23:49:07.153Z,87.52
2023-12-04T23:54:10.180Z,87.92
2023-12-04T23:59:11.743Z,88.07
